Time;durP1;ratioP1;P1;durP2;ratioP2;P2;SDS_P1;SDS_P2;PMS_P1;PMS_P2;Temp;Humidity;BMP_temperature;BMP_pressure;BME280_temperature;BME280_humidity;BME280_pressure;Samples;Min_cycle;Max_cycle;Signal;HPM_P1;HPM_P2
2022/11/08 05:31:55;;;;;;;;;2.50;2.25;;;;;12.31;64.51;100238.69;1429707;26;46169;-79
2022/11/08 05:34:21;;;;;;;;;2.25;2.25;;;;;12.38;64.79;100258.84;5057517;28;45565;-77
2022/11/08 05:36:46;;;;;;;;;4.25;2.25;;;;;12.22;64.73;100236.56;5057733;28;45306;-78
2022/11/08 05:39:11;;;;;;;;;4.00;4.00;;;;;12.25;64.21;100237.22;5057849;28;45700;-78
2022/11/08 05:41:37;;;;;;;;;2.50;2.50;;;;;12.38;64.72;100246.28;5057860;28;45458;-78
2022/11/08 05:44:02;;;;;;;;;3.00;3.00;;;;;12.41;64.51;100250.59;5057829;28;45406;-79
2022/11/08 05:46:27;;;;;;;;;4.75;3.00;;;;;12.37;64.38;100244.53;5057474;28;45552;-77
2022/11/08 05:48:53;;;;;;;;;2.00;2.00;;;;;12.18;64.33;100210.81;5057507;28;46266;-78
2022/11/08 05:51:19;;;;;;;;;2.75;2.75;;;;;12.40;64.57;100243.50;5058293;28;45440;-78
2022/11/08 05:53:47;;;;;;;;;2.50;2.50;;;;;12.36;64.13;100239.25;5057830;28;45383;-79
2022/11/08 05:56:13;;;;;;;;;5.00;5.00;;;;;12.40;64.41;100255.13;5057406;28;45469;-78
2022/11/08 05:58:38;;;;;;;;;4.75;3.00;;;;;12.19;64.32;100228.66;5039404;28;48036;-79
2022/11/08 06:01:07;;;;;;;;;4.50;3.75;;;;;12.13;64.42;100222.72;5057085;28;46977;-78
2022/11/08 06:03:32;;;;;;;;;4.75;3.00;;;;;12.37;64.52;100255.28;5039718;28;45415;-78
2022/11/08 06:06:06;;;;;;;;;4.00;4.00;;;;;12.30;64.59;100240.50;5058529;28;45264;-79
2022/11/08 06:08:32;;;;;;;;;3.75;2.75;;;;;12.30;64.78;100251.25;5058469;28;45658;-79
2022/11/08 06:11:04;;;;;;;;;3.50;3.50;;;;;12.34;64.49;100235.78;5058603;28;45396;-77
2022/11/08 06:13:31;;;;;;;;;3.00;3.00;;;;;12.33;64.49;100248.38;5040420;28;45379;-79
2022/11/08 06:16:06;;;;;;;;;3.25;3.25;;;;;12.31;64.47;100262.88;5056801;28;45411;-75
2022/11/08 06:18:33;;;;;;;;;7.00;5.00;;;;;12.23;64.79;100249.91;5057138;28;46061;-77
2022/11/08 06:21:08;;;;;;;;;3.25;3.25;;;;;12.23;64.68;100265.16;5056966;28;46028;-78
2022/11/08 06:23:34;;;;;;;;;2.00;2.00;;;;;12.04;65.23;100227.78;5038812;28;45403;-80
2022/11/08 06:25:59;;;;;;;;;3.00;3.00;;;;;11.88;65.10;100198.28;5038273;28;47379;-77
2022/11/08 06:28:26;;;;;;;;;6.00;3.50;;;;;12.13;64.96;100237.97;5056831;28;45391;-78
2022/11/08 06:30:51;;;;;;;;;4.50;4.50;;;;;11.73;64.82;100172.31;5037710;28;45370;-78
2022/11/08 06:33:18;;;;;;;;;4.00;4.00;;;;;11.70;65.28;100175.19;5056581;28;45442;-77
2022/11/08 06:35:44;;;;;;;;;3.00;3.00;;;;;12.04;65.44;100223.25;5038690;28;46070;-76
2022/11/08 06:38:09;;;;;;;;;3.25;3.25;;;;;11.98;64.92;100218.28;5057307;28;45477;-77
2022/11/08 06:40:37;;;;;;;;;4.75;4.25;;;;;12.17;65.32;100255.63;5056514;28;45363;-76
2022/11/08 06:43:02;;;;;;;;;3.00;2.75;;;;;12.13;65.27;100256.78;5038178;28;45362;-74
2022/11/08 06:45:27;;;;;;;;;3.00;3.00;;;;;12.08;65.02;100265.09;5037964;28;45343;-75
2022/11/08 06:48:02;;;;;;;;;5.25;4.00;;;;;12.03;65.11;100280.63;5056192;28;45404;-74
2022/11/08 06:50:29;;;;;;;;;3.25;3.00;;;;;12.00;65.69;100279.94;5056269;28;45937;-73
2022/11/08 06:52:56;;;;;;;;;4.25;4.25;;;;;11.94;65.99;100250.75;5056514;28;45418;-76
2022/11/08 06:55:21;;;;;;;;;3.25;3.25;;;;;12.04;65.40;100271.63;5056491;28;45560;-75
2022/11/08 06:57:46;;;;;;;;;4.00;3.00;;;;;12.14;65.75;100271.94;5057900;28;45516;-76
2022/11/08 07:00:14;;;;;;;;;4.00;4.00;;;;;12.11;65.35;100261.38;5040427;28;45382;-76
2022/11/08 07:02:39;;;;;;;;;4.00;4.00;;;;;11.99;65.18;100256.75;5058740;28;45390;-76
2022/11/08 07:05:05;;;;;;;;;3.25;3.25;;;;;12.14;65.67;100271.94;5036489;28;47234;-76
2022/11/08 07:07:31;;;;;;;;;6.00;3.00;;;;;12.06;65.63;100264.34;5049236;28;46069;-73
2022/11/08 07:09:56;;;;;;;;;3.00;3.00;;;;;12.17;65.58;100287.00;5035657;28;45412;-74
2022/11/08 07:12:22;;;;;;;;;4.00;3.75;;;;;12.12;65.33;100285.47;5033269;28;45445;-74
2022/11/08 07:14:47;;;;;;;;;3.25;3.25;;;;;12.08;65.61;100270.47;5035159;28;45637;-73
2022/11/08 07:17:14;;;;;;;;;5.50;4.00;;;;;12.13;65.31;100278.28;5035281;28;46058;-70
2022/11/08 07:19:40;;;;;;;;;4.00;4.00;;;;;12.16;65.38;100291.53;5034062;28;45437;-71
2022/11/08 07:22:05;;;;;;;;;5.00;5.00;;;;;11.81;65.38;100244.41;5018054;28;45495;-70
2022/11/08 07:24:31;;;;;;;;;3.50;3.50;;;;;12.05;65.34;100292.16;5017707;28;45692;-70
2022/11/08 07:26:56;;;;;;;;;4.00;4.00;;;;;12.06;65.62;100280.47;5035792;28;45514;-69
2022/11/08 07:29:21;;;;;;;;;3.00;3.00;;;;;12.15;65.46;100283.56;5035354;28;45263;-70
2022/11/08 07:31:47;;;;;;;;;0.00;0.00;;;;;11.79;65.49;100214.94;5035378;28;45206;-71
2022/11/08 07:34:12;;;;;;;;;4.25;4.00;;;;;12.12;65.42;100266.66;5035369;28;45294;-70
2022/11/08 07:36:38;;;;;;;;;4.00;4.00;;;;;12.22;65.58;100301.03;5038232;28;46361;-69
2022/11/08 07:39:03;;;;;;;;;4.00;4.00;;;;;12.02;65.10;100269.97;5041251;28;45685;-69
2022/11/08 07:41:28;;;;;;;;;5.00;5.00;;;;;12.05;65.71;100273.38;5037477;28;45407;-72
2022/11/08 07:43:54;;;;;;;;;3.50;3.50;;;;;12.18;65.87;100291.44;5054370;28;45468;-70
2022/11/08 07:46:19;;;;;;;;;3.25;3.25;;;;;12.24;65.43;100313.44;5055146;28;45420;-70
2022/11/08 07:48:44;;;;;;;;;8.50;4.50;;;;;12.28;65.77;100300.66;5055402;28;45305;-69
2022/11/08 07:51:10;;;;;;;;;5.00;5.00;;;;;12.26;65.22;100287.31;5055488;28;45556;-69
2022/11/08 07:53:35;;;;;;;;;5.25;5.25;;;;;12.31;65.34;100293.31;5055017;28;45365;-70
2022/11/08 07:56:00;;;;;;;;;4.50;4.50;;;;;12.24;65.55;100269.59;5055237;28;45413;-70
2022/11/08 07:58:26;;;;;;;;;4.75;3.75;;;;;12.38;65.47;100297.34;5054031;28;45492;-69
2022/11/08 08:00:51;;;;;;;;;2.75;2.75;;;;;12.37;65.35;100284.84;5055259;28;45315;-70
2022/11/08 08:03:17;;;;;;;;;5.75;4.00;;;;;12.40;65.39;100287.38;5054583;28;45466;-70
2022/11/08 08:05:43;;;;;;;;;4.00;2.50;;;;;12.49;65.33;100302.09;5054760;28;45252;-70
2022/11/08 08:08:11;;;;;;;;;3.50;3.50;;;;;12.51;65.12;100290.25;5054914;28;45514;-70
2022/11/08 08:10:38;;;;;;;;;3.25;3.25;;;;;12.59;65.18;100291.63;5055089;28;45374;-70
2022/11/08 08:13:03;;;;;;;;;4.00;4.00;;;;;12.60;65.33;100287.97;5054840;28;45535;-70
2022/11/08 08:15:29;;;;;;;;;4.25;4.25;;;;;12.59;65.23;100270.13;5036784;28;46323;-70
2022/11/08 08:17:54;;;;;;;;;3.50;3.50;;;;;12.66;65.39;100264.25;5054903;28;45314;-70
2022/11/08 08:20:20;;;;;;;;;5.00;4.00;;;;;12.72;65.43;100249.56;5055009;28;45308;-70
2022/11/08 08:22:47;;;;;;;;;4.00;4.00;;;;;12.74;65.22;100266.47;5036834;28;45327;-70
2022/11/08 08:25:13;;;;;;;;;3.00;3.00;;;;;12.75;65.14;100247.56;5054819;28;46301;-70
2022/11/08 08:27:38;;;;;;;;;5.25;4.00;;;;;12.68;65.13;100231.88;5054658;28;45212;-70
2022/11/08 08:30:05;;;;;;;;;5.50;3.75;;;;;12.72;65.13;100242.34;5055023;28;45339;-70
2022/11/08 08:32:31;;;;;;;;;6.50;4.50;;;;;12.73;65.24;100236.03;5035042;28;45498;-71
2022/11/08 08:34:56;;;;;;;;;4.75;3.75;;;;;12.88;65.41;100251.19;5000258;28;46447;-70
2022/11/08 08:37:23;;;;;;;;;2.00;2.00;;;;;12.89;65.35;100266.38;5034248;28;45717;-70
2022/11/08 08:39:48;;;;;;;;;3.00;3.00;;;;;12.91;65.50;100271.66;5034623;28;45300;-70
2022/11/08 08:42:14;;;;;;;;;3.75;3.75;;;;;12.95;65.30;100289.31;5034760;28;45650;-71
2022/11/08 08:44:39;;;;;;;;;3.75;3.75;;;;;12.98;65.57;100283.75;5034885;28;46304;-70
2022/11/08 08:47:04;;;;;;;;;4.50;3.25;;;;;13.08;65.48;100290.31;5034623;28;45330;-71
2022/11/08 08:49:29;;;;;;;;;3.00;3.00;;;;;13.13;65.27;100290.88;5034660;28;45396;-70
2022/11/08 08:51:55;;;;;;;;;3.00;3.00;;;;;13.13;65.44;100285.50;5034041;28;47345;-69
2022/11/08 08:54:20;;;;;;;;;4.75;3.50;;;;;13.16;65.46;100284.47;5046491;28;45366;-71
2022/11/08 08:56:45;;;;;;;;;3.00;3.00;;;;;13.27;65.47;100299.94;5054131;28;45282;-71
2022/11/08 08:59:11;;;;;;;;;3.50;3.50;;;;;13.31;65.38;100298.75;5054547;28;45366;-70
2022/11/08 09:01:36;;;;;;;;;4.00;2.25;;;;;13.38;65.11;100292.88;5053866;28;45621;-70
2022/11/08 09:04:03;;;;;;;;;4.25;3.75;;;;;13.46;65.51;100297.75;5053734;28;45342;-72
2022/11/08 09:06:28;;;;;;;;;2.75;2.75;;;;;13.38;65.40;100270.47;5054079;28;45494;-71
2022/11/08 09:08:53;;;;;;;;;1.00;0.00;;;;;13.60;65.43;100297.75;5054149;28;45329;-70
2022/11/08 09:11:19;;;;;;;;;4.00;4.00;;;;;13.67;65.43;100282.91;5045515;28;45290;-71
2022/11/08 09:13:44;;;;;;;;;2.25;2.25;;;;;13.86;65.01;100283.41;5036197;28;48193;-70
2022/11/08 09:16:12;;;;;;;;;3.25;3.25;;;;;13.96;65.09;100284.50;5054069;28;45326;-70
2022/11/08 09:18:37;;;;;;;;;5.00;3.50;;;;;14.01;64.74;100270.75;5054216;28;45235;-69
2022/11/08 09:21:03;;;;;;;;;3.00;3.00;;;;;14.16;64.24;100279.63;5053997;28;45219;-71
2022/11/08 09:23:29;;;;;;;;;2.00;2.00;;;;;14.28;64.53;100306.63;5054151;28;45369;-69
2022/11/08 09:25:56;;;;;;;;;5.00;3.25;;;;;14.41;64.18;100295.88;5036004;28;45387;-70
2022/11/08 09:28:22;;;;;;;;;2.00;2.00;;;;;14.50;63.86;100297.94;5054242;28;45429;-71
2022/11/08 09:30:47;;;;;;;;;2.75;2.75;;;;;14.58;63.61;100302.78;5053393;28;50964;-71
2022/11/08 09:33:12;;;;;;;;;2.00;2.00;;;;;14.69;63.70;100297.53;5053721;28;49200;-70
2022/11/08 09:35:38;;;;;;;;;1.50;1.50;;;;;14.70;63.58;100293.88;5053052;28;45353;-70
2022/11/08 09:38:03;;;;;;;;;1.00;1.00;;;;;14.76;62.93;100302.38;5036146;28;45353;-71
2022/11/08 09:40:36;;;;;;;;;2.00;2.00;;;;;14.68;63.34;100275.06;5053719;28;45259;-70
2022/11/08 09:43:27;;;;;;;;;0.00;0.00;;;;;14.86;63.41;100285.53;5053609;28;45418;-70
2022/11/08 09:45:54;;;;;;;;;3.50;2.00;;;;;14.89;63.17;100279.91;5022493;28;45378;-69
2022/11/08 09:48:41;;;;;;;;;2.50;2.00;;;;;14.92;63.41;100288.66;5053727;28;45449;-70
2022/11/08 09:51:14;;;;;;;;;4.50;4.50;;;;;15.00;62.91;100293.50;5053698;28;45366;-72
2022/11/08 09:53:50;;;;;;;;;2.00;2.00;;;;;14.98;62.89;100281.94;5052256;28;46335;-70
2022/11/08 09:56:25;;;;;;;;;2.00;2.00;;;;;15.08;63.12;100296.53;5053751;28;45391;-70
2022/11/08 09:58:53;;;;;;;;;2.25;2.25;;;;;15.13;62.52;100286.28;5053942;28;45394;-68
2022/11/08 10:01:21;;;;;;;;;2.00;2.00;;;;;15.20;62.60;100286.69;5053282;28;45359;-70
2022/11/08 10:03:51;;;;;;;;;5.00;2.00;;;;;15.28;62.39;100287.88;5053293;28;45980;-71
2022/11/08 10:06:33;;;;;;;;;3.00;3.00;;;;;15.32;62.10;100278.56;5036479;28;45344;-70
2022/11/08 10:09:11;;;;;;;;;2.00;2.00;;;;;15.33;62.47;100263.22;5057169;28;45282;-70
2022/11/08 10:12:07;;;;;;;;;2.25;2.00;;;;;15.43;62.65;100292.16;5056898;28;45363;-70
2022/11/08 10:14:47;;;;;;;;;2.75;2.75;;;;;15.39;62.49;100301.47;5056756;28;46429;-71
2022/11/08 10:17:47;;;;;;;;;3.25;3.25;;;;;15.49;62.50;100297.09;5038321;28;45249;-70
2022/11/08 10:20:34;;;;;;;;;2.00;2.00;;;;;15.55;62.49;100289.56;5057278;28;45677;-71
2022/11/08 10:23:18;;;;;;;;;1.75;1.75;;;;;15.64;62.44;100295.16;5057679;28;45321;-70
2022/11/08 10:25:49;;;;;;;;;2.50;2.50;;;;;15.59;62.26;100280.25;5057592;28;47298;-70
2022/11/08 10:28:18;;;;;;;;;1.25;1.25;;;;;15.80;62.20;100290.34;5056887;28;45551;-70
2022/11/08 10:30:48;;;;;;;;;0.50;0.00;;;;;15.92;61.85;100298.47;5038982;28;45426;-69
2022/11/08 10:33:23;;;;;;;;;2.00;2.00;;;;;15.98;62.02;100290.78;5056399;28;45595;-70
2022/11/08 10:35:57;;;;;;;;;2.50;2.25;;;;;16.06;62.17;100282.09;5037225;28;46470;-70
2022/11/08 10:38:30;;;;;;;;;2.00;2.00;;;;;16.15;61.79;100289.50;5056569;28;45474;-71
2022/11/08 10:41:24;;;;;;;;;2.25;2.25;;;;;16.18;62.07;100292.84;5057135;28;45322;-70
2022/11/08 10:44:03;;;;;;;;;2.00;2.00;;;;;16.13;62.40;100273.41;5056176;28;45351;-71
2022/11/08 10:46:34;;;;;;;;;2.25;2.25;;;;;16.26;62.77;100292.25;5056147;28;45355;-70
2022/11/08 10:49:16;;;;;;;;;4.75;2.00;;;;;16.45;62.56;100283.56;5056305;28;45454;-70
2022/11/08 10:51:44;;;;;;;;;2.50;2.50;;;;;16.77;61.59;100281.09;5056328;28;45283;-71
2022/11/08 10:54:42;;;;;;;;;4.25;2.50;;;;;17.40;59.33;100286.78;5056392;28;45358;-70
2022/11/08 10:57:10;;;;;;;;;2.75;2.75;;;;;18.09;58.08;100275.66;5048767;28;46247;-71
2022/11/08 10:59:35;;;;;;;;;2.50;2.50;;;;;18.51;56.98;100266.56;5036052;28;45462;-72
2022/11/08 11:02:01;;;;;;;;;1.50;1.50;;;;;18.64;55.78;100260.94;5036191;28;45362;-71
2022/11/08 11:04:30;;;;;;;;;3.00;3.00;;;;;18.82;54.94;100242.19;5050497;28;45441;-71
2022/11/08 11:07:03;;;;;;;;;3.00;2.50;;;;;19.11;54.14;100245.91;5056244;28;45725;-70
2022/11/08 11:09:28;;;;;;;;;4.00;2.75;;;;;19.03;54.72;100236.72;5055938;28;45390;-70
2022/11/08 11:11:58;;;;;;;;;2.00;2.00;;;;;18.83;55.10;100252.91;5056019;28;45269;-70
2022/11/08 11:14:24;;;;;;;;;3.00;3.00;;;;;18.68;55.65;100246.13;5055971;28;45711;-70
2022/11/08 11:16:55;;;;;;;;;2.50;1.25;;;;;18.53;56.38;100263.72;5055728;28;45397;-70
2022/11/08 11:19:21;;;;;;;;;5.25;2.00;;;;;18.31;56.99;100267.41;5055844;28;45393;-70
2022/11/08 11:22:11;;;;;;;;;2.50;2.00;;;;;18.18;57.37;100261.31;5038021;28;45193;-72
2022/11/08 11:24:49;;;;;;;;;2.75;2.75;;;;;18.21;57.46;100266.47;5055561;28;45646;-71
2022/11/08 11:27:31;;;;;;;;;3.50;3.50;;;;;17.99;58.33;100263.84;5055853;28;45247;-71
2022/11/08 11:30:22;;;;;;;;;4.50;2.00;;;;;17.90;58.87;100253.78;5037791;28;45553;-70
2022/11/08 11:33:00;;;;;;;;;2.50;2.50;;;;;17.78;59.06;100240.25;5055522;28;45276;-71
2022/11/08 11:35:48;;;;;;;;;2.00;2.00;;;;;17.78;59.28;100263.78;5055764;28;45306;-70
2022/11/08 11:38:27;;;;;;;;;1.00;1.00;;;;;17.90;59.33;100262.78;5055616;28;49078;-71
2022/11/08 11:40:59;;;;;;;;;2.75;2.75;;;;;18.03;58.88;100265.34;5055615;28;45456;-71
2022/11/08 11:43:34;;;;;;;;;4.00;3.00;;;;;17.96;58.95;100266.81;5055865;28;45295;-71
2022/11/08 11:46:28;;;;;;;;;2.00;2.00;;;;;17.81;59.35;100260.84;5055498;28;45377;-70
2022/11/08 11:49:05;;;;;;;;;3.25;3.25;;;;;17.72;59.95;100253.47;5055502;28;46258;-71
2022/11/08 11:51:31;;;;;;;;;2.00;2.00;;;;;17.69;59.56;100232.06;5055730;28;45502;-70
2022/11/08 11:53:57;;;;;;;;;2.25;2.25;;;;;17.84;59.71;100266.00;5055873;28;45276;-70
2022/11/08 11:56:57;;;;;;;;;2.00;2.00;;;;;17.89;59.45;100257.47;5055579;28;46386;-70
2022/11/08 11:59:40;;;;;;;;;4.00;4.00;;;;;17.92;59.66;100257.22;5055435;28;45390;-70
2022/11/08 12:02:24;;;;;;;;;4.75;3.50;;;;;17.88;59.72;100248.47;5055084;28;45359;-69
2022/11/08 12:05:18;;;;;;;;;2.00;2.00;;;;;17.81;59.91;100254.56;5055352;28;45416;-70
2022/11/08 12:08:47;;;;;;;;;3.00;3.00;;;;;17.73;60.09;100241.63;5055024;28;45938;-69
2022/11/08 12:11:31;;;;;;;;;3.00;3.00;;;;;17.77;60.32;100241.28;4953423;28;45504;-70
2022/11/08 12:14:27;;;;;;;;;3.25;2.75;;;;;17.74;60.79;100244.22;4937643;28;45333;-69
2022/11/08 12:17:02;;;;;;;;;5.00;4.00;;;;;17.68;60.77;100246.59;5033909;28;45259;-72
2022/11/08 12:19:46;;;;;;;;;3.75;3.00;;;;;17.69;60.99;100237.47;5036677;28;46740;-70
2022/11/08 12:22:26;;;;;;;;;4.00;3.00;;;;;17.64;61.18;100248.69;5054721;28;45404;-71
2022/11/08 12:25:25;;;;;;;;;4.00;3.00;;;;;17.59;61.14;100245.47;5055080;28;45228;-71
2022/11/08 12:27:56;;;;;;;;;4.00;4.00;;;;;17.51;61.30;100242.53;5055169;28;45379;-70
2022/11/08 12:30:37;;;;;;;;;4.50;3.00;;;;;17.43;62.11;100234.19;5052699;28;45510;-71
2022/11/08 12:33:36;;;;;;;;;4.00;4.00;;;;;17.38;62.12;100228.25;5054482;28;45388;-70
2022/11/08 12:36:18;;;;;;;;;5.00;2.75;;;;;17.44;62.08;100232.34;5054873;28;45371;-70
2022/11/08 12:38:58;;;;;;;;;3.50;3.50;;;;;17.50;61.94;100237.25;5054680;28;45367;-70
2022/11/08 12:41:26;;;;;;;;;6.00;4.75;;;;;17.56;62.05;100225.88;5054817;28;45579;-71
2022/11/08 12:44:24;;;;;;;;;3.00;3.00;;;;;17.56;62.12;100223.16;5054402;28;46510;-70
2022/11/08 12:47:15;;;;;;;;;5.75;3.00;;;;;17.60;62.02;100241.78;5054156;28;45247;-71
2022/11/08 12:50:19;;;;;;;;;2.00;2.00;;;;;17.61;62.12;100224.50;5035746;28;45571;-73
2022/11/08 12:52:59;;;;;;;;;2.75;2.75;;;;;17.57;62.14;100222.19;5036246;28;46411;-71
2022/11/08 12:55:31;;;;;;;;;4.75;4.75;;;;;17.56;62.05;100226.75;5054427;28;45341;-71
2022/11/08 12:57:59;;;;;;;;;4.50;3.00;;;;;17.56;62.24;100229.47;5054269;28;45328;-71
2022/11/08 13:00:27;;;;;;;;;3.75;3.75;;;;;17.55;62.68;100218.72;5054338;28;45220;-70
2022/11/08 13:03:16;;;;;;;;;1.00;1.00;;;;;17.50;62.50;100210.13;5053727;28;45346;-72
2022/11/08 13:06:04;;;;;;;;;3.00;3.00;;;;;17.44;62.43;100230.44;5053569;28;45307;-70
2022/11/08 13:08:48;;;;;;;;;2.25;2.25;;;;;17.45;62.39;100228.59;5054176;28;45247;-71
2022/11/08 13:11:22;;;;;;;;;4.00;4.00;;;;;17.48;62.43;100228.38;5054055;28;45424;-69
2022/11/08 13:13:53;;;;;;;;;3.00;3.00;;;;;17.51;62.00;100225.41;5054401;28;45468;-71
2022/11/08 13:16:22;;;;;;;;;4.25;3.00;;;;;17.55;61.94;100210.59;5053659;28;45947;-70
2022/11/08 13:18:54;;;;;;;;;3.75;3.75;;;;;17.61;62.15;100210.94;5054205;28;45491;-69
2022/11/08 13:21:37;;;;;;;;;4.75;4.00;;;;;17.63;61.58;100209.00;5054793;28;45425;-72
2022/11/08 13:24:05;;;;;;;;;3.50;3.50;;;;;17.68;61.48;100216.78;5054653;28;45473;-70
2022/11/08 13:26:32;;;;;;;;;6.75;4.00;;;;;17.67;61.25;100185.22;5054869;28;45511;-71
2022/11/08 13:29:18;;;;;;;;;3.00;3.00;;;;;17.85;60.92;100197.22;5053784;28;45351;-70
2022/11/08 13:32:06;;;;;;;;;2.50;1.50;;;;;17.90;60.87;100192.28;5045844;28;45969;-70
2022/11/08 13:34:59;;;;;;;;;3.75;3.00;;;;;17.96;60.38;100190.88;5054040;28;45422;-70
2022/11/08 13:37:53;;;;;;;;;7.50;3.75;;;;;18.05;60.47;100192.81;5053684;28;46937;-70
2022/11/08 13:40:30;;;;;;;;;3.25;3.25;;;;;18.12;60.04;100194.84;5053795;28;45309;-71
2022/11/08 13:42:56;;;;;;;;;4.00;3.50;;;;;18.11;60.30;100195.00;5038888;28;45455;-69
2022/11/08 13:45:28;;;;;;;;;4.25;3.75;;;;;18.14;60.28;100197.44;5056995;28;45328;-70
2022/11/08 13:48:00;;;;;;;;;5.25;3.00;;;;;18.17;60.03;100199.03;5057600;28;45411;-71
2022/11/08 13:50:28;;;;;;;;;4.00;4.00;;;;;18.20;60.13;100201.50;5039044;28;45352;-70
2022/11/08 13:53:18;;;;;;;;;3.00;3.00;;;;;18.51;58.83;100208.69;5057563;28;45319;-70
2022/11/08 13:55:48;;;;;;;;;2.75;2.75;;;;;18.98;58.01;100204.50;5057352;28;45358;-70
2022/11/08 13:58:31;;;;;;;;;2.00;2.00;;;;;19.44;56.26;100214.81;5057214;28;46098;-70
2022/11/08 14:00:58;;;;;;;;;1.50;1.50;;;;;19.62;54.92;100168.81;5056800;28;45347;-70
2022/11/08 14:03:46;;;;;;;;;1.25;1.25;;;;;20.26;53.88;100204.44;5056912;28;45364;-68
2022/11/08 14:06:38;;;;;;;;;3.00;3.00;;;;;20.30;53.66;100203.16;5051238;28;45360;-69
2022/11/08 14:09:19;;;;;;;;;5.00;3.25;;;;;20.34;53.57;100195.56;5057164;28;45311;-71
2022/11/08 14:12:13;;;;;;;;;3.00;3.00;;;;;20.27;53.78;100200.72;5056851;28;45353;-72
2022/11/08 14:14:50;;;;;;;;;2.00;1.25;;;;;20.13;54.05;100192.13;5057015;28;45359;-71
2022/11/08 14:17:51;;;;;;;;;3.00;3.00;;;;;20.06;54.41;100194.59;5056523;28;45406;-70
2022/11/08 14:20:21;;;;;;;;;2.50;2.50;;;;;20.03;54.62;100211.19;5056682;28;45471;-70
2022/11/08 14:22:47;;;;;;;;;22.25;20.50;;;;;19.82;54.72;100208.59;5056606;28;45440;-70
2022/11/08 14:25:27;;;;;;;;;4.50;2.50;;;;;19.55;55.87;100219.31;5056796;28;45503;-71
2022/11/08 14:27:53;;;;;;;;;4.00;3.00;;;;;19.47;56.46;100228.19;5056784;28;45227;-69
2022/11/08 14:30:22;;;;;;;;;2.75;1.50;;;;;19.21;57.20;100206.03;5056551;28;45931;-71
2022/11/08 14:32:48;;;;;;;;;1.50;1.50;;;;;19.11;57.39;100202.44;5056522;28;45442;-71
2022/11/08 14:35:21;;;;;;;;;2.25;2.25;;;;;19.03;57.71;100215.00;5056773;28;45341;-70
2022/11/08 14:37:47;;;;;;;;;4.00;2.00;;;;;18.92;57.94;100212.34;5056796;28;45405;-70
2022/11/08 14:40:27;;;;;;;;;5.50;4.00;;;;;18.85;58.59;100222.91;5056237;28;46554;-72
2022/11/08 14:42:54;;;;;;;;;4.00;2.25;;;;;18.74;58.79;100206.69;5056795;28;45261;-71
2022/11/08 14:45:21;;;;;;;;;2.50;2.50;;;;;18.73;59.11;100210.41;5052608;28;45431;-71
2022/11/08 14:47:52;;;;;;;;;5.00;2.25;;;;;18.64;59.44;100203.06;5036752;28;45484;-72
2022/11/08 14:50:20;;;;;;;;;2.00;2.00;;;;;18.70;59.50;100225.13;5036446;28;46122;-71
2022/11/08 14:52:46;;;;;;;;;2.00;2.00;;;;;18.77;59.35;100199.16;5036375;28;45381;-71
2022/11/08 14:55:14;;;;;;;;;2.50;2.50;;;;;18.90;58.88;100186.19;5036306;28;45579;-70
2022/11/08 14:57:46;;;;;;;;;3.00;2.75;;;;;19.08;58.05;100171.94;5036299;28;45598;-70
2022/11/08 15:00:25;;;;;;;;;5.50;4.00;;;;;19.14;58.15;100204.84;5035560;28;45583;-72
2022/11/08 15:03:04;;;;;;;;;2.00;1.00;;;;;19.02;57.93;100194.25;5037290;28;45575;-72
2022/11/08 15:05:41;;;;;;;;;5.75;3.75;;;;;18.92;58.22;100193.34;5056504;28;45382;-71
2022/11/08 15:08:21;;;;;;;;;3.25;3.25;;;;;18.80;58.74;100182.56;5055957;28;45338;-72
2022/11/08 15:11:06;;;;;;;;;3.75;3.00;;;;;18.68;58.94;100186.38;5047619;28;46656;-71
2022/11/08 15:13:39;;;;;;;;;3.00;3.00;;;;;18.54;59.25;100203.84;5056198;28;45289;-71
2022/11/08 15:16:06;;;;;;;;;3.50;2.00;;;;;18.38;59.91;100189.03;5055986;28;45323;-71
2022/11/08 15:18:35;;;;;;;;;3.50;2.00;;;;;18.34;60.16;100174.03;5056018;28;45618;-72
2022/11/08 15:21:28;;;;;;;;;2.50;2.50;;;;;18.31;60.79;100174.28;5055546;28;46562;-71
2022/11/08 15:24:11;;;;;;;;;2.00;2.00;;;;;18.28;60.71;100183.56;5051189;28;45505;-70
2022/11/08 15:26:37;;;;;;;;;2.50;2.00;;;;;18.21;60.94;100186.91;5056341;28;45420;-70
2022/11/08 15:29:18;;;;;;;;;2.25;2.25;;;;;18.19;61.16;100191.63;5055789;28;45634;-71
2022/11/08 15:31:51;;;;;;;;;4.00;3.75;;;;;18.05;61.64;100181.94;5055307;28;47266;-70
2022/11/08 15:34:33;;;;;;;;;2.25;2.25;;;;;17.96;62.00;100177.31;5055485;28;45409;-71
2022/11/08 15:36:59;;;;;;;;;3.50;2.00;;;;;17.99;61.76;100185.19;5055952;28;45280;-69
2022/11/08 15:39:35;;;;;;;;;3.00;2.25;;;;;17.94;61.57;100163.91;5055797;28;45290;-71
2022/11/08 15:42:12;;;;;;;;;3.00;3.00;;;;;17.80;61.42;100152.50;5055833;28;46326;-72
2022/11/08 15:44:57;;;;;;;;;4.00;3.00;;;;;17.90;61.82;100183.28;5055754;28;45279;-71
2022/11/08 15:47:41;;;;;;;;;2.00;2.00;;;;;17.87;61.77;100186.22;5055294;28;45397;-71
2022/11/08 15:50:13;;;;;;;;;2.00;2.00;;;;;17.81;62.32;100190.34;5055222;28;45335;-70
2022/11/08 15:52:38;;;;;;;;;2.00;2.00;;;;;17.81;62.19;100175.91;5055284;28;47417;-70
2022/11/08 15:55:04;;;;;;;;;4.00;3.00;;;;;17.77;61.77;100184.31;5055307;28;45342;-70
2022/11/08 15:57:31;;;;;;;;;4.00;3.00;;;;;17.70;61.94;100180.38;5055871;28;45545;-71
2022/11/08 15:59:57;;;;;;;;;5.00;2.00;;;;;17.83;62.09;100187.50;5053687;28;45513;-70
2022/11/08 16:02:23;;;;;;;;;4.50;2.50;;;;;17.84;61.67;100186.50;5055020;28;46420;-70
2022/11/08 16:04:49;;;;;;;;;2.00;2.00;;;;;17.76;61.80;100190.75;5054065;28;45475;-70
2022/11/08 16:07:14;;;;;;;;;2.00;2.00;;;;;17.72;61.72;100196.53;5055492;28;45240;-70
2022/11/08 16:09:39;;;;;;;;;1.25;1.25;;;;;17.57;61.47;100158.00;5055098;28;45337;-71
2022/11/08 16:12:05;;;;;;;;;3.50;2.25;;;;;17.68;61.67;100187.81;5054955;28;46319;-69
2022/11/08 16:14:30;;;;;;;;;2.00;2.00;;;;;17.57;62.12;100176.97;5055021;28;45228;-69
2022/11/08 16:16:56;;;;;;;;;3.50;3.50;;;;;17.62;62.29;100192.88;5056017;28;45468;-69
2022/11/08 16:19:23;;;;;;;;;3.25;2.25;;;;;17.64;62.12;100193.59;5037508;28;45565;-71
2022/11/08 16:21:50;;;;;;;;;3.00;3.00;;;;;17.50;62.41;100175.75;5055700;28;45483;-74
2022/11/08 16:24:15;;;;;;;;;4.00;2.50;;;;;17.53;62.37;100196.31;5036890;28;45510;-72
2022/11/08 16:26:42;;;;;;;;;2.25;2.25;;;;;17.43;62.44;100168.28;5055167;28;45320;-73
2022/11/08 16:29:23;;;;;;;;;4.00;2.00;;;;;17.48;62.56;100185.00;5054606;28;45447;-74
2022/11/08 16:31:49;;;;;;;;;2.00;2.00;;;;;17.42;62.24;100172.84;5054155;28;46180;-72
2022/11/08 16:34:15;;;;;;;;;3.00;3.00;;;;;17.50;62.64;100188.47;5054977;28;45426;-73
2022/11/08 16:36:45;;;;;;;;;4.00;4.00;;;;;17.46;62.79;100184.25;5055103;28;45318;-72
2022/11/08 16:39:20;;;;;;;;;3.00;1.25;;;;;17.38;63.11;100185.78;5054632;28;45484;-70
2022/11/08 16:41:46;;;;;;;;;3.00;3.00;;;;;17.36;63.21;100204.00;5054403;28;45323;-69
2022/11/08 16:44:12;;;;;;;;;4.25;2.50;;;;;17.31;63.42;100195.41;5054496;28;45286;-71
2022/11/08 16:46:38;;;;;;;;;5.00;3.75;;;;;17.38;63.09;100196.59;5054151;28;45327;-71
2022/11/08 16:49:05;;;;;;;;;2.75;2.75;;;;;17.25;63.71;100176.09;5054394;28;45650;-69
2022/11/08 16:51:30;;;;;;;;;3.00;1.75;;;;;17.23;63.71;100197.00;5054060;28;46309;-69
2022/11/08 16:53:56;;;;;;;;;3.00;3.00;;;;;17.21;63.87;100210.69;5054691;28;45334;-70
2022/11/08 16:56:21;;;;;;;;;4.00;4.00;;;;;17.14;63.67;100209.47;5054607;28;45939;-71
2022/11/08 16:58:47;;;;;;;;;2.00;2.00;;;;;17.17;63.71;100203.81;5054432;28;45890;-70
2022/11/08 17:01:19;;;;;;;;;2.00;2.00;;;;;17.17;63.67;100192.09;5053902;28;47100;-69
2022/11/08 17:03:44;;;;;;;;;4.25;3.00;;;;;17.13;63.56;100190.63;5053548;28;45220;-70
2022/11/08 17:06:14;;;;;;;;;4.50;2.75;;;;;17.09;63.37;100192.75;5036338;28;45439;-70
2022/11/08 17:08:40;;;;;;;;;3.75;2.50;;;;;17.13;63.49;100198.75;5052742;28;45426;-69
2022/11/08 17:11:05;;;;;;;;;4.50;3.00;;;;;17.10;63.41;100186.31;5053347;28;45374;-70
2022/11/08 17:13:30;;;;;;;;;3.00;3.00;;;;;16.98;62.98;100169.22;5054419;28;45228;-70
2022/11/08 17:15:56;;;;;;;;;1.25;0.00;;;;;16.96;62.80;100209.09;5037671;28;45189;-69
2022/11/08 17:18:21;;;;;;;;;5.00;3.75;;;;;16.98;62.87;100190.03;5057894;28;45407;-70